Otway, Ohio
Current Conditions -  °F | °C
As of 9:15 AM on Friday 19 Dec 2014 (Local Time) from KDWU Reporting Station
Overcast Overcast  
Wind Chill: 28°   Ceiling: 2300
Heat Index: 28°   Visibility: 9mi
Dew Point: 21°   Wind: 3mph
Humidity: 74%   Direction: 270°W
Pressure: 30.29"   Gusts: NA
Location:  38.87°N, 83.19°W
Report Text: KDWU 191415Z AUTO 27003KT 9SM OVC023 M02/M06 A3029 RMK AO1
Loading
Personal Weather Stations






























Interactive Weather Map New forecast layout! Learn more

10-Day Weather Forecast

Advertisements
Track Severe Weather on mobile